Tiempo atmosférico en la estación meteorológica de Coll De Nargó, Lleida (603 m.)

Fecha
DESCASC
Temp. máxima en grados centígrados (hora)
DESCASC
Temp. mínima en grados centígrados (hora)
DESCASC
Temp. media en grados centígrados
DESCASC
Racha de viento máxima en m/sg (hora)
DESCASC
Velocidad máxima media en intervalos de 10 minutos(hora)
DESCASC
Precipitaciones diarias en mm
DESCASC
Precipitaciones de 00:00 a 06:00 en mm
DESCASC
Precipitaciones de 06:00 a 12:00 en mm
DESCASC
Precipitaciones de 12:00 a 18:00 en mm
DESCASC
Precipitaciones de 18:00 a 24:00 en mm
DESCASC
17-09-2017 20.8 (16:00) 4.1 (07:30) 12.4 10.56 (18:00) 6.94 (16:50) 0.2 0.2 0 0 0
16-09-2017 15.7 (12:40) 4.4 (07:40) 10 15.28 (13:30) 11.94 (13:40) 2.4 0 0 0.2 2.2
15-09-2017 14.9 (00:00) 7.4 (23:59) 11.1 15 (03:20) 11.67 (03:20) 24.2 6.4 10.6 7.2 0
14-09-2017 28.4 (13:50) 11.1 (00:00) 19.8 17.22 (22:50) 11.67 (22:50) 0.2 0 0 0 0.2
13-09-2017 28.1 (16:00) 8 (00:00) 18.1 12.22 (15:50) 9.17 (15:10) 0 0 0 0 0
12-09-2017 24.1 (17:30) 11.8 (00:00) 18 13.33 (12:30) 11.11 (12:30) 0 0 0 0 0
11-09-2017 29.7 (16:40) 7.9 (00:00) 18.8 11.67 (12:20) 9.44 (12:20) 0 0 0 0 0
10-09-2017 23 (16:00) 6.4 (00:00) 14.7 15.56 (17:50) 9.17 (13:40) 0.2 0.2 0 0 0
09-09-2017 16.4 (18:00) 9.6 (00:00) 13 6.94 (22:40) 3.61 (22:40) 4.2 0 0.2 2.2 1.8
08-09-2017 26.2 (16:00) 8.1 (00:00) 17.2 12.22 (12:50) 8.89 (12:30) 0 0 0 0 0
07-09-2017 24.5 (17:00) 12 (00:00) 18.3 15.28 (15:10) 11.67 (15:10) 0 0 0 0 0
06-09-2017 28.1 (16:50) 16.8 (00:00) 22.4 13.89 (13:00) 11.11 (12:40) 0 0 0 0 0
05-09-2017 31.4 (15:10) 14.5 (00:00) 22.9 9.17 (17:30) 6.67 (17:00) 0 0 0 0 0
04-09-2017 29.1 (13:50) 15.1 (00:00) 22.1 14.72 (15:20) 8.89 (15:50) 0 0 0 0 0
03-09-2017 26.4 (16:00) 9.1 (00:00) 17.8 11.94 (18:40) 8.33 (16:00) 0 0 0 0 0
02-09-2017 26 (16:10) 10.9 (00:00) 18.4 10.83 (04:20) 8.06 (12:30) 0 0 0 0 0
01-09-2017 24.8 (17:20) 13.8 (00:00) 19.3 12.78 (12:40) 10 (11:20) 0.2 0 0.2 0 0
31-08-2017 20.4 (15:00) 16 (00:00) 18.2 12.22 (13:00) 10 (12:40) 21.2 0 2 19.2 0
30-08-2017 29.4 (15:20) 15.8 (00:00) 22.6 12.78 (04:20) 7.78 (04:30) 0.8 0.2 0.6 0 0
29-08-2017 30.1 (12:50) 16.9 (00:00) 23.5 10.56 (15:10) 7.78 (23:40) 0 0 0 0 0
28-08-2017 36.7 (15:30) 15.2 (00:00) 26 12.5 (18:10) 6.67 (19:00) 0 0 0 0 0
27-08-2017 37.1 (16:20) 18.7 (00:00) 27.9 12.78 (18:10) 7.78 (18:20) 0.4 0 0 0 0.4
26-08-2017 35.8 (14:30) 16.4 (00:00) 26.1 11.39 (21:30) 7.5 (14:40) 0 0 0 0 0
25-08-2017 34.7 (15:10) 15.4 (00:00) 25.1 11.39 (18:10) 6.67 (14:00) 0 0 0 0 0
24-08-2017 34.3 (15:50) 17.2 (00:00) 25.8 10.56 (22:30) 8.06 (22:30) 1 0.8 0.2 0 0
23-08-2017 35.1 (16:10) 17.7 (00:00) 26.4 11.94 (13:50) 7.5 (01:00) 0 0 0 0 0
22-08-2017 35.9 (15:50) 14.9 (00:00) 25.4 11.39 (14:20) 7.78 (13:20) 0 0 0 0 0

Gráficas

Temp. máximas Temp. mínimas Temp. medias Precipitaciones Rachas de viento máximas Velocidades máximas media en intervalos de 10 minutos

Datos horarios

Fecha y hora oficial Temperatura (ºC) Velocidad del viento (km/h) Dirección del viento Racha (km/h) Dirección de racha Precipitación (mm) Presión (hPa) Tendencia (hPa) Humedad (%)
2017-09-20 23:00:00 12.1 3 Sur 5 Sur 0 -- -- 57
2017-09-20 22:00:00 13.6 0 Calma 7 Norte 0 -- -- 51
2017-09-20 21:00:00 15.1 5 Nordeste 12 Sur 0 -- -- 46
2017-09-20 20:00:00 17.3 12 Sur 26 Sur 0 -- -- 39
2017-09-20 19:00:00 19.4 21 Sur 33 Sur 0 -- -- 33
2017-09-20 18:00:00 21.8 22 Sur 33 Sur 0 -- -- 31
2017-09-20 17:00:00 22.3 26 Sur 41 Sur 0 -- -- 31
2017-09-20 16:00:00 22.8 27 Sur 42 Sur 0 -- -- 32
2017-09-20 15:00:00 22.2 29 Sur 41 Sur 0 -- -- 31
2017-09-20 14:00:00 21.5 29 Sur 38 Sur 0 -- -- 33
2017-09-20 13:00:00 21.4 5 Sur 14 Sur 0 -- -- 31
2017-09-20 12:00:00 17.9 5 Nordeste 8 Nordeste 0 -- -- 36
2017-09-20 11:00:00 14.8 3 Norte 12 Norte 0 -- -- 41
2017-09-20 10:00:00 11.2 7 Norte 11 Norte 0 -- -- 54
2017-09-20 09:00:00 5.3 4 Norte 6 Nordeste 0 -- -- 77
2017-09-20 08:00:00 4.9 4 Norte 13 Norte 0 -- -- 77
2017-09-20 07:00:00 5.6 5 Norte 10 Norte 0 -- -- 72
2017-09-20 06:00:00 6.4 5 Norte 8 Norte 0 -- -- 67
2017-09-20 05:00:00 7.8 4 Norte 6 Nordeste 0 -- -- 61
2017-09-20 04:00:00 7.9 3 Norte 12 Nordeste 0 -- -- 61
2017-09-20 03:00:00 8.7 6 Nordeste 10 Nordeste 0 -- -- 59
2017-09-20 02:00:00 11 5 Norte 16 Norte 0 -- -- 47
2017-09-20 01:00:00 11.6 8 Nordeste 20 Norte 0 -- -- 45
2017-09-20 00:00:00 12.5 9 Norte 27 Norte 0 -- -- 41
2017-09-19 23:00:00 13.5 13 Norte 31 Norte 0 -- -- 37
2017-09-19 22:00:00 14.6 14 Norte 31 Nordeste 0 -- -- 37
2017-09-19 21:00:00 16.2 19 Nordeste 33 Nordeste 0 -- -- 33
2017-09-19 20:00:00 17.2 5 Nordeste 33 Norte 0 -- -- 29
2017-09-19 19:00:00 19 8 Nordeste 18 Nordeste 0 -- -- 28
2017-09-19 18:00:00 21.3 11 Sur 29 Sur 0 -- -- 34
2017-09-19 17:00:00 21.1 18 Sur 31 Sur 0 -- -- 40
2017-09-19 16:00:00 21.7 21 Sur 32 Sudeste 0 -- -- 38
2017-09-19 15:00:00 21.9 25 Sur 38 Sur 0 -- -- 42
2017-09-19 14:00:00 20.5 27 Sur 39 Sur 0 -- -- 47
2017-09-19 13:00:00 19.9 25 Sur 32 Sur 0 -- -- 49
2017-09-19 12:00:00 19.1 4 Sudeste 12 Norte 0 -- -- 36
2017-09-19 11:00:00 15.1 6 Nordeste 11 Nordeste 0 -- -- 46
2017-09-19 10:00:00 12.9 4 Nordeste 6 Norte 0 -- -- 56
2017-09-19 09:00:00 5.5 4 Norte 6 Norte 0 -- -- 81
2017-09-19 08:00:00 5.6 5 Norte 8 Nordeste 0 -- -- 81
2017-09-19 07:00:00 6.2 3 Norte 6 Nordeste 0 -- -- 78
2017-09-19 06:00:00 7.6 3 Norte 6 Nordeste 0 -- -- 71
2017-09-19 05:00:00 7.1 3 Norte 10 Norte 0 -- -- 75
2017-09-19 04:00:00 8.2 3 Norte 9 Nordeste 0 -- -- 70
2017-09-19 03:00:00 9 6 Nordeste 11 Nordeste 0 -- -- 69
2017-09-19 02:00:00 11.3 5 Nordeste 21 Norte 0 -- -- 58
2017-09-19 01:00:00 12.9 14 Norte 23 Norte 0 -- -- 52
2017-09-19 00:00:00 13.9 11 Norte 22 Norte 0 -- -- 47
2017-09-18 23:00:00 14.5 14 Norte 30 Nordeste 0 -- -- 47
2017-09-18 22:00:00 16.2 18 Norte 32 Norte 0 -- -- 45
2017-09-18 21:00:00 15.9 6 Norte 15 Norte 0 -- -- 60
2017-09-18 20:00:00 17.4 0 Calma 9 Sudeste 0 -- -- 56
2017-09-18 19:00:00 19.4 5 Sudeste 21 Sur 0 -- -- 47
2017-09-18 18:00:00 21.4 10 Sur 20 Sur 0 -- -- 41
2017-09-18 17:00:00 20.6 5 Nordeste 12 Sudeste 0 -- -- 47
2017-09-18 16:00:00 22.1 5 Este 13 Sur 0 -- -- 41
2017-09-18 15:00:00 20 9 Este 17 Nordeste 0 -- -- 46
2017-09-18 14:00:00 20 9 Nordeste 18 Nordeste 0 -- -- 47
2017-09-18 13:00:00 17.1 6 Nordeste 11 Norte 0 -- -- 66
2017-09-18 12:00:00 12.8 3 Nordeste 8 Nordeste 0 -- -- 89
2017-09-18 11:00:00 10.4 2 Nordeste 10 Norte 0.6 -- -- 92
2017-09-18 10:00:00 10.5 6 Norte 8 Norte 0 -- -- 82
2017-09-18 09:00:00 9.3 3 Norte 5 Norte 0 -- -- 88
2017-09-18 08:00:00 8.2 3 Norte 9 Noroeste 0 -- -- 92
2017-09-18 07:00:00 7.7 5 Norte 8 Norte 0 -- -- 93
2017-09-18 06:00:00 7.4 5 Norte 7 Norte 0 -- -- 93
2017-09-18 05:00:00 7.7 4 Norte 8 Norte 0 -- -- 95
2017-09-18 04:00:00 8.2 5 Norte 6 Norte 0 -- -- 93
2017-09-18 03:00:00 10 4 Nordeste 9 Norte 0 -- -- 86
2017-09-18 02:00:00 11.2 3 Norte 6 Norte 0 -- -- 77
2017-09-18 01:00:00 12 2 Norte 8 Este 0 -- -- 74
2017-09-18 00:00:00 12.5 5 Nordeste 6 Nordeste 0 -- -- 72
2017-09-17 23:00:00 13.6 3 Nordeste 25 Sur 0 -- -- 63
2017-09-17 22:00:00 13.9 4 Sur 18 Sudeste 0 -- -- 65
2017-09-17 21:00:00 15.1 2 Sudeste 19 Sur 0 -- -- 57
2017-09-17 20:00:00 16 16 Sur 31 Sur 0 -- -- 54
2017-09-17 19:00:00 17.5 24 Sur 36 Sudeste 0 -- -- 48
2017-09-17 18:00:00 19.4 25 Sur 38 Sudeste 0 -- -- 43
2017-09-17 17:00:00 20.7 24 Sudeste 34 Sur 0 -- -- 42
2017-09-17 16:00:00 20.8 23 Sudeste 31 Sur 0 -- -- 44
2017-09-17 15:00:00 20 22 Sur 30 Sur 0 -- -- 48
2017-09-17 14:00:00 18.9 20 Sudeste 32 Sudeste 0 -- -- 52
2017-09-17 13:00:00 18 15 Sudeste 26 Sudeste 0 -- -- 55
2017-09-17 12:00:00 13.8 5 Nordeste 10 Nordeste 0 -- -- 68
2017-09-17 11:00:00 11.8 8 Nordeste 13 Nordeste 0 -- -- 76
2017-09-17 10:00:00 9.5 4 Norte 9 Este 0 -- -- 93
2017-09-17 09:00:00 4.7 4 Nordeste 7 Nordeste 0 -- -- 100
2017-09-17 08:00:00 4.2 3 Nordeste 6 Nordeste 0 -- -- 100
2017-09-17 07:00:00 4.5 2 Nordeste 5 Nordeste 0 -- -- 100
2017-09-17 06:00:00 4.4 4 Norte 9 Norte 0.2 -- -- 100
2017-09-17 05:00:00 5.1 3 Norte 8 Nordeste 0 -- -- 100
2017-09-17 04:00:00 5.1 4 Norte 6 Norte 0 -- -- 100
2017-09-17 03:00:00 5.6 3 Nordeste 6 Nordeste 0 -- -- 99
2017-09-17 02:00:00 6 4 Noroeste 8 Nordeste 0 -- -- 100
2017-09-17 01:00:00 5.9 5 Nordeste 9 Norte 0 -- -- 100
2017-09-17 00:00:00 6.5 7 Norte 12 Norte 0 -- -- 99
2017-09-16 23:00:00 6.9 6 Norte 10 Nordeste 0 -- -- 98
2017-09-16 22:00:00 7.4 6 Nordeste 10 Nordeste 0 -- -- 98
2017-09-16 21:00:00 7.8 8 Nordeste 13 Norte 0 -- -- 95
2017-09-16 20:00:00 8.6 6 Noroeste 27 Nordeste 2.2 -- -- 91
2017-09-16 19:00:00 13.6 7 Sur 31 Sur 0 -- -- 71
2017-09-16 18:00:00 14.8 27 Sur 42 Sur 0 -- -- 70
2017-09-16 17:00:00 15 30 Sur 49 Sur 0 -- -- 67
2017-09-16 16:00:00 15.5 34 Sudeste 54 Sur 0 -- -- 65
2017-09-16 15:00:00 14.8 40 Sur 53 Sur 0 -- -- 71
2017-09-16 14:00:00 13.8 42 Sur 55 Sur 0 -- -- 76
2017-09-16 13:00:00 14.7 33 Sur 42 Sur 0.2 -- -- 73
2017-09-16 12:00:00 14.6 4 Nordeste 12 Nordeste 0 -- -- 66
2017-09-16 11:00:00 12.7 8 Nordeste 17 Nordeste 0 -- -- 75
2017-09-16 10:00:00 11.2 4 Nordeste 8 Nordeste 0 -- -- 84
2017-09-16 09:00:00 5.2 2 Nordeste 10 Norte 0 -- -- 100
2017-09-16 08:00:00 4.8 3 Norte 9 Norte 0 -- -- 100
2017-09-16 07:00:00 5.1 4 Norte 8 Norte 0 -- -- 100
2017-09-16 06:00:00 4.8 4 Norte 9 Norte 0 -- -- 100
2017-09-16 05:00:00 5.5 4 Norte 7 Norte 0 -- -- 100
2017-09-16 04:00:00 5.7 4 Norte 8 Norte 0 -- -- 99
2017-09-16 03:00:00 6.7 3 Norte 5 Nordeste 0 -- -- 98
2017-09-16 02:00:00 7 2 Nordeste 14 Norte 0 -- -- 100
2017-09-16 01:00:00 6.8 6 Norte 10 Norte 0 -- -- 99
2017-09-16 00:00:00 7.4 5 Norte 8 Nordeste 0 -- -- 99
2017-09-15 23:00:00 8.4 4 Nordeste 6 Norte 0 -- -- 97
2017-09-15 22:00:00 8.9 4 Norte 8 Nordeste 0 -- -- 96
2017-09-15 21:00:00 10.1 3 Nordeste 7 Nordeste 0 -- -- 88
2017-09-15 20:00:00 10.6 0 Calma 6 Sudoeste 0 -- -- 86
2017-09-15 19:00:00 11.2 0 Calma 9 Nordeste 0 -- -- 85
2017-09-15 18:00:00 11.2 5 Norte 8 Norte 0 -- -- 90
2017-09-15 17:00:00 11.7 3 Nordeste 10 Nordeste 0 -- -- 87
2017-09-15 16:00:00 9.6 3 Norte 17 Noroeste 3.2 -- -- 98
2017-09-15 15:00:00 10.3 7 Norte 9 Norte 2.4 -- -- 97
2017-09-15 14:00:00 10.7 0 Calma 10 Norte 1.4 -- -- 95
2017-09-15 13:00:00 11.3 6 Nordeste 22 Norte 0.2 -- -- 95
2017-09-15 12:00:00 11.7 7 Nordeste 12 Nordeste 2.4 -- -- 99
2017-09-15 11:00:00 10.9 3 Sudeste 11 Norte 3 -- -- 99
2017-09-15 10:00:00 10.9 3 Norte 13 Sudoeste 1.4 -- -- 99
2017-09-15 09:00:00 10.8 0 Calma 16 Sur 1.6 -- -- 99
2017-09-15 08:00:00 10.6 3 Oeste 8 Noroeste 0.4 -- -- 99
2017-09-15 07:00:00 10.4 5 Norte 16 Sur 1.8 -- -- 98
2017-09-15 06:00:00 10.2 4 Sur 22 Sudoeste 3.6 -- -- 98
2017-09-15 05:00:00 10.2 21 Sur 46 Sudeste 2.4 -- -- 96
2017-09-15 04:00:00 11.1 34 Sur 54 Sudeste 0 -- -- 90
2017-09-15 03:00:00 12.2 28 Sur 42 Sur 0 -- -- 86
2017-09-15 02:00:00 13.3 24 Sur 33 Sur 0 -- -- 76
2017-09-15 01:00:00 13.5 16 Sur 44 Sudeste 0.4 -- -- 77
2017-09-15 00:00:00 14.9 29 Sur 57 Sudeste 0.2 -- -- 69
2017-09-14 23:00:00 18.4 41 Sur 62 Sur 0 -- -- 54
2017-09-14 22:00:00 20.3 32 Sur 49 Sur 0 -- -- 50
2017-09-14 21:00:00 21.4 23 Sudeste 40 Sudeste 0 -- -- 45
2017-09-14 20:00:00 22.5 28 Sur 42 Sur 0 -- -- 42
2017-09-14 19:00:00 24.4 27 Sur 48 Sur 0 -- -- 40
2017-09-14 18:00:00 25.4 32 Sudoeste 48 Sudoeste 0 -- -- 40
2017-09-14 17:00:00 26.9 20 Sur 44 Sudeste 0 -- -- 47
2017-09-14 16:00:00 24.4 26 Sur 50 Sur 0 -- -- 57
2017-09-14 15:00:00 27.2 34 Sur 50 Sur 0 -- -- 49
2017-09-14 14:00:00 28.2 30 Sur 46 Sudeste 0 -- -- 42
2017-09-14 13:00:00 27 28 Sur 39 Sur 0 -- -- 44
2017-09-14 12:00:00 25.8 16 Sudeste 27 Sudeste 0 -- -- 46
2017-09-14 11:00:00 22.2 4 Nordeste 9 Norte 0 -- -- 49
2017-09-14 10:00:00 19.5 3 Nordeste 7 Nordeste 0 -- -- 55
2017-09-14 09:00:00 12.6 3 Norte 6 Norte 0 -- -- 78
2017-09-14 08:00:00 12.5 2 Norte 9 Norte 0 -- -- 80
2017-09-14 07:00:00 11.4 5 Norte 8 Norte 0 -- -- 88
2017-09-14 06:00:00 11.5 6 Norte 8 Norte 0 -- -- 88
2017-09-14 05:00:00 12.6 6 Norte 8 Norte 0 -- -- 82
2017-09-14 04:00:00 13.5 5 Norte 11 Norte 0 -- -- 76
2017-09-14 03:00:00 13.3 7 Norte 9 Norte 0 -- -- 79
2017-09-14 02:00:00 13.7 6 Norte 7 Norte 0 -- -- 77
2017-09-14 01:00:00 16 0 Calma 6 Nordeste 0 -- -- 65
2017-09-14 00:00:00 16.6 5 Nordeste 15 Sur 0 -- -- 63
2017-09-13 23:00:00 19.1 5 Sur 20 Sur 0 -- -- 54
2017-09-13 22:00:00 20.4 11 Sur 24 Sur 0 -- -- 51
2017-09-13 21:00:00 23 18 Sudeste 28 Sur 0 -- -- 43
2017-09-13 20:00:00 23.5 20 Sur 28 Sur 0 -- -- 41
2017-09-13 19:00:00 25.5 23 Sur 38 Sudeste 0 -- -- 38
2017-09-13 18:00:00 27.2 25 Sur 41 Sur 0 -- -- 33
2017-09-13 17:00:00 27.5 30 Sur 39 Sur 0 -- -- 32
2017-09-13 16:00:00 28.1 28 Sudeste 44 Sur 0 -- -- 30
2017-09-13 15:00:00 27.1 32 Sur 40 Sur 0 -- -- 31
2017-09-13 14:00:00 26.4 28 Sur 41 Sur 0 -- -- 32
2017-09-13 13:00:00 25.3 24 Sur 32 Sur 0 -- -- 35
2017-09-13 12:00:00 23 16 Sudeste 24 Sudeste 0 -- -- 40
2017-09-13 11:00:00 20.4 3 Nordeste 9 Norte 0 -- -- 46
2017-09-13 10:00:00 16.4 5 Norte 8 Nordeste 0 -- -- 55
2017-09-13 09:00:00 9.4 5 Nordeste 9 Noroeste 0 -- -- 81
2017-09-13 08:00:00 8.9 6 Norte 9 Norte 0 -- -- 84
2017-09-13 07:00:00 8 8 Norte 10 Norte 0 -- -- 90
2017-09-13 06:00:00 8.2 7 Norte 9 Norte 0 -- -- 88
2017-09-13 05:00:00 9.1 4 Norte 6 Nordeste 0 -- -- 84
2017-09-13 04:00:00 9.8 5 Norte 8 Norte 0 -- -- 80
2017-09-13 03:00:00 10.2 4 Norte 8 Noroeste 0 -- -- 78
2017-09-13 02:00:00 11.4 0 Calma 4 Nordeste 0 -- -- 70
2017-09-13 01:00:00 12.5 2 Sur 4 Sur 0 -- -- 68
2017-09-13 00:00:00 13.7 2 Este 6 Nordeste 0 -- -- 60
2017-09-12 23:00:00 15.3 2 Sudoeste 20 Sur 0 -- -- 55
2017-09-12 22:00:00 17.5 15 Sur 23 Sur 0 -- -- 49
2017-09-12 21:00:00 18.9 10 Sur 28 Sudeste 0 -- -- 44
2017-09-12 20:00:00 20.4 21 Sudeste 32 Sudeste 0 -- -- 41
2017-09-12 19:00:00 22 17 Sur 39 Sur 0 -- -- 40
2017-09-12 18:00:00 23.6 22 Sur 38 Sur 0 -- -- 40
2017-09-12 17:00:00 23.9 24 Sudeste 41 Sur 0 -- -- 41
2017-09-12 16:00:00 23.8 30 Sur 43 Sur 0 -- -- 42
2017-09-12 15:00:00 22.7 31 Sur 47 Sur 0 -- -- 48
2017-09-12 14:00:00 21.3 36 Sur 47 Sur 0 -- -- 54
2017-09-12 13:00:00 19.3 39 Sur 48 Sur 0 -- -- 60
2017-09-12 12:00:00 18.4 31 Sur 40 Sur 0 -- -- 64
2017-09-12 11:00:00 18.2 6 Nordeste 12 Norte 0 -- -- 62
2017-09-12 10:00:00 14.8 2 Sudeste 21 Sur 0 -- -- 76
2017-09-12 09:00:00 13.1 11 Sur 26 Sur 0 -- -- 83
2017-09-12 08:00:00 11.8 15 Sur 25 Sur 0 -- -- 87
2017-09-12 07:00:00 12.5 13 Sudeste 26 Sur 0 -- -- 83
2017-09-12 06:00:00 13.2 14 Sudeste 33 Sur 0 -- -- 80
2017-09-12 05:00:00 14.1 28 Sur 37 Sur 0 -- -- 75
2017-09-12 04:00:00 15.4 32 Sur 45 Sur 0 -- -- 69
2017-09-12 03:00:00 16.5 28 Sur 39 Sur 0 -- -- 64
2017-09-12 02:00:00 17.3 31 Sur 40 Sur 0 -- -- 60
2017-09-12 01:00:00 16.7 13 Sur 28 Sur 0 -- -- 59
2017-09-12 00:00:00 17.1 6 Norte 19 Oeste 0 -- -- 49
2017-09-11 23:00:00 21.2 8 Sudoeste 17 Sudoeste 0 -- -- 38
2017-09-11 22:00:00 21.8 4 Sudeste 17 Sudeste 0 -- -- 32
2017-09-11 21:00:00 22.1 12 Sudoeste 24 Sur 0 -- -- 33
2017-09-11 20:00:00 23.1 8 Sudoeste 25 Sur 0 -- -- 34
2017-09-11 19:00:00 25.3 13 Sur 31 Sudeste 0 -- -- 31
2017-09-11 18:00:00 27.6 20 Sur 37 Sur 0 -- -- 32
2017-09-11 17:00:00 29.6 15 Sur 32 Sur 0 -- -- 30
2017-09-11 16:00:00 26.2 14 Sur 40 Sur 0 -- -- 41
2017-09-11 15:00:00 27 25 Sur 39 Sur 0 -- -- 42
2017-09-11 14:00:00 26 28 Sur 40 Sur 0 -- -- 44
2017-09-11 13:00:00 23.6 30 Sur 42 Sur 0 -- -- 47
2017-09-11 12:00:00 21 25 Sur 35 Sur 0 -- -- 49
2017-09-11 11:00:00 18.2 9 Sur 19 Sur 0 -- -- 50
2017-09-11 10:00:00 14.7 3 Sur 7 Sudeste 0 -- -- 60
2017-09-11 09:00:00 8.4 5 Norte 7 Norte 0 -- -- 82
2017-09-11 08:00:00 8.7 2 Sur 6 Nordeste 0 -- -- 84
2017-09-11 07:00:00 9.2 3 Sur 9 Norte 0 -- -- 80
2017-09-11 06:00:00 9.5 6 Nordeste 9 Noroeste 0 -- -- 79
2017-09-11 05:00:00 10.5 2 Nordeste 8 Nordeste 0 -- -- 70
2017-09-11 04:00:00 11.8 2 Sur 9 Nordeste 0 -- -- 64
2017-09-11 03:00:00 12.1 6 Nordeste 9 Nordeste 0 -- -- 62
2017-09-11 02:00:00 12.6 6 Nordeste 9 Norte 0 -- -- 59
2017-09-11 01:00:00 14.4 6 Nordeste 12 Nordeste 0 -- -- 51
2017-09-11 00:00:00 14.1 6 Nordeste 13 Nordeste 0 -- -- 53
2017-09-10 23:00:00 15.6 9 Noroeste 23 Norte 0 -- -- 46
2017-09-10 22:00:00 16.6 15 Norte 27 Norte 0 -- -- 43
2017-09-10 21:00:00 16.9 13 Nordeste 38 Norte 0 -- -- 40
2017-09-10 20:00:00 17.9 25 Nordeste 45 Norte 0 -- -- 36
2017-09-10 19:00:00 19.3 29 Norte 50 Nordeste 0 -- -- 34
2017-09-10 18:00:00 21.1 32 Norte 56 Nordeste 0 -- -- 32
2017-09-10 17:00:00 22.7 20 Norte 47 Nordeste 0 -- -- 30
2017-09-10 16:00:00 23 23 Norte 49 Norte 0 -- -- 28
2017-09-10 15:00:00 22.9 23 Norte 54 Nordeste 0 -- -- 29
2017-09-10 14:00:00 21.6 31 Nordeste 52 Nordeste 0 -- -- 30
2017-09-10 13:00:00 20.7 26 Nordeste 46 Nordeste 0 -- -- 33
2017-09-10 12:00:00 20 24 Nordeste 40 Nordeste 0 -- -- 33
2017-09-10 11:00:00 17.3 10 Nordeste 33 Nordeste 0 -- -- 50
2017-09-10 10:00:00 15.1 5 Norte 11 Nordeste 0 -- -- 70
2017-09-10 09:00:00 8 3 Sudoeste 14 Norte 0 -- -- 94
2017-09-10 08:00:00 6.9 4 Norte 12 Norte 0 -- -- 95
2017-09-10 07:00:00 6.4 8 Norte 17 Norte 0 -- -- 99
2017-09-10 06:00:00 6.8 8 Norte 19 Norte 0 -- -- 100
2017-09-10 05:00:00 7 4 Norte 8 Nordeste 0 -- -- 100
2017-09-10 04:00:00 7.5 4 Norte 10 Norte 0.2 -- -- 100
2017-09-10 03:00:00 7.8 10 Nordeste 17 Norte 0 -- -- 99
2017-09-10 02:00:00 8.7 2 Este 12 Nordeste 0 -- -- 99
2017-09-10 01:00:00 9.1 4 Norte 12 Noroeste 0 -- -- 98
2017-09-10 00:00:00 9.6 5 Nordeste 14 Norte 0 -- -- 96
2017-09-09 23:00:00 11.2 6 Este 25 Noroeste 0.8 -- -- 91
2017-09-09 22:00:00 12.3 4 Norte 15 Oeste 0.4 -- -- 88
2017-09-09 21:00:00 13 3 Nordeste 8 Sur 0.2 -- -- 92
2017-09-09 20:00:00 13.5 4 Sudoeste 14 Noroeste 0 -- -- 89
2017-09-09 19:00:00 14.3 6 Sudeste 9 Sudeste 0.4 -- -- 89
2017-09-09 18:00:00 16.4 3 Sur 6 Este 0 -- -- 72
2017-09-09 17:00:00 15.3 0 Calma 13 Norte 0 -- -- 86
2017-09-09 16:00:00 15.2 5 Norte 11 Noroeste 0.6 -- -- 95
2017-09-09 15:00:00 13.7 3 Norte 13 Norte 0.4 -- -- 95
2017-09-09 14:00:00 13.6 6 Norte 12 Noroeste 0.2 -- -- 94
2017-09-09 13:00:00 13.4 5 Norte 10 Sudeste 1 -- -- 94
2017-09-09 12:00:00 13.7 5 Nordeste 18 Norte 0.2 -- -- 80
2017-09-09 11:00:00 15.6 3 Norte 9 Norte 0 -- -- 63
2017-09-09 10:00:00 14.6 3 Nordeste 9 Norte 0 -- -- 67
2017-09-09 09:00:00 12 5 Norte 9 Norte 0 -- -- 79
2017-09-09 08:00:00 11.2 4 Norte 8 Norte 0 -- -- 79
2017-09-09 07:00:00 11.1 5 Norte 6 Norte 0 -- -- 81
2017-09-09 06:00:00 12.2 3 Norte 8 Nordeste 0 -- -- 76
2017-09-09 05:00:00 10.9 6 Norte 10 Norte 0 -- -- 81
2017-09-09 04:00:00 11.3 6 Norte 9 Norte 0 -- -- 78
2017-09-09 03:00:00 12.4 3 Norte 13 Norte 0 -- -- 74
2017-09-09 02:00:00 12.7 3 Norte 8 Nordeste 0 -- -- 73
2017-09-09 01:00:00 14 3 Norte 6 Sudoeste 0 -- -- 69
2017-09-09 00:00:00 15 0 Calma 8 Nordeste 0 -- -- 64
2017-09-08 23:00:00 17.8 3 Sur 14 Sur 0 -- -- 55
2017-09-08 22:00:00 18.6 14 Sur 32 Sur 0 -- -- 54
2017-09-08 21:00:00 20.5 22 Sur 30 Sur 0 -- -- 48
2017-09-08 20:00:00 21.6 19 Sur 29 Sur 0 -- -- 45
2017-09-08 19:00:00 23.2 22 Sur 35 Sur 0 -- -- 40
2017-09-08 18:00:00 24.5 27 Sudeste 41 Sur 0 -- -- 36
2017-09-08 17:00:00 25.5 27 Sur 39 Sur 0 -- -- 36
2017-09-08 16:00:00 26.2 27 Sur 41 Sur 0 -- -- 35
2017-09-08 15:00:00 25.4 31 Sur 39 Sur 0 -- -- 37
2017-09-08 14:00:00 24.7 28 Sur 40 Sur 0 -- -- 39
2017-09-08 13:00:00 22.8 32 Sur 44 Sudeste 0 -- -- 44
2017-09-08 12:00:00 21.8 29 Sur 41 Sur 0 -- -- 46
2017-09-08 11:00:00 20.4 4 Nordeste 8 Nordeste 0 -- -- 40
2017-09-08 10:00:00 15.9 2 Nordeste 9 Nordeste 0 -- -- 51
2017-09-08 09:00:00 9.1 5 Norte 9 Norte 0 -- -- 88
2017-09-08 08:00:00 8.4 4 Norte 7 Norte 0 -- -- 93
2017-09-08 07:00:00 8.6 5 Norte 6 Noroeste 0 -- -- 92
2017-09-08 06:00:00 8.9 3 Norte 8 Norte 0 -- -- 94
2017-09-08 05:00:00 9.7 5 Norte 8 Norte 0 -- -- 92
2017-09-08 04:00:00 10.3 5 Norte 7 Norte 0 -- -- 88
2017-09-08 03:00:00 11 5 Norte 8 Nordeste 0 -- -- 87
2017-09-08 02:00:00 11.7 5 Norte 6 Norte 0 -- -- 83
2017-09-08 01:00:00 13.1 0 Calma 4 Norte 0 -- -- 76
2017-09-08 00:00:00 14.7 3 Este 5 Norte 0 -- -- 68
2017-09-07 23:00:00 16.5 0 Calma 8 Sur 0 -- -- 60
2017-09-07 22:00:00 18.1 6 Sur 19 Sur 0 -- -- 55
2017-09-07 21:00:00 19.8 18 Sur 31 Sur 0 -- -- 50
2017-09-07 20:00:00 21.1 28 Sur 37 Sur 0 -- -- 49
2017-09-07 19:00:00 22.6 30 Sur 45 Sur 0 -- -- 49
2017-09-07 18:00:00 23.5 31 Sur 54 Sur 0 -- -- 49
2017-09-07 17:00:00 24.5 33 Sur 53 Sur 0 -- -- 45
2017-09-07 16:00:00 24.4 37 Sur 55 Sur 0 -- -- 45
2017-09-07 15:00:00 23.7 42 Sur 53 Sur 0 -- -- 45
2017-09-07 14:00:00 22.8 41 Sur 54 Sur 0 -- -- 48
2017-09-07 13:00:00 21.5 41 Sur 51 Sur 0 -- -- 52
2017-09-07 12:00:00 20.1 32 Sur 44 Sur 0 -- -- 57
2017-09-07 11:00:00 18.5 28 Sur 34 Sur 0 -- -- 62
2017-09-07 10:00:00 18.4 3 Nordeste 7 Nordeste 0 -- -- 55
2017-09-07 09:00:00 12.4 4 Norte 8 Norte 0 -- -- 87
2017-09-07 08:00:00 12.4 3 Sudoeste 25 Sur 0 -- -- 84
2017-09-07 07:00:00 13.1 23 Sur 34 Sur 0 -- -- 80
2017-09-07 06:00:00 14.3 17 Sur 24 Sur 0 -- -- 80
2017-09-07 05:00:00 15.9 21 Sur 39 Sur 0 -- -- 72
2017-09-07 04:00:00 16.8 28 Sur 39 Sur 0 -- -- 71
2017-09-07 03:00:00 17.8 27 Sur 39 Sur 0 -- -- 70
2017-09-07 02:00:00 18.8 13 Sudeste 22 Sur 0 -- -- 80
2017-09-07 01:00:00 18.5 5 Norte 11 Sur 0 -- -- 82
2017-09-07 00:00:00 19.6 9 Sudeste 18 Sudeste 0 -- -- 77
2017-09-06 23:00:00 20.2 5 Este 30 Sur 0 -- -- 71
2017-09-06 22:00:00 20 15 Sur 26 Sur 0 -- -- 80
2017-09-06 21:00:00 20.8 11 Sur 28 Sur 0 -- -- 75
2017-09-06 20:00:00 23.7 16 Sur 28 Sudeste 0 -- -- 59
2017-09-06 19:00:00 25 20 Sur 32 Sur 0 -- -- 53
2017-09-06 18:00:00 25.4 26 Sur 39 Sur 0 -- -- 53
2017-09-06 17:00:00 27.8 30 Sur 43 Sur 0 -- -- 47
2017-09-06 16:00:00 25.6 29 Sur 47 Sur 0 -- -- 53
2017-09-06 15:00:00 25.7 31 Sur 47 Sur 0 -- -- 55
2017-09-06 14:00:00 26.4 35 Sur 47 Sur 0 -- -- 56
2017-09-06 13:00:00 24 39 Sur 50 Sur 0 -- -- 65
2017-09-06 12:00:00 22.9 33 Sur 44 Sur 0 -- -- 70
2017-09-06 11:00:00 23.2 19 Sur 30 Sur 0 -- -- 70
2017-09-06 10:00:00 20.2 15 Sur 23 Sur 0 -- -- 79
2017-09-06 09:00:00 17.8 3 Sur 6 Sur 0 -- -- 85
2017-09-06 08:00:00 16.9 0 Calma 3 Sur 0 -- -- 85
2017-09-06 07:00:00 16.9 2 Nordeste 6 Nordeste 0 -- -- 85
2017-09-06 06:00:00 17.1 5 Norte 7 Nordeste 0 -- -- 84
2017-09-06 05:00:00 18.5 0 Calma 4 Nordeste 0 -- -- 77
2017-09-06 04:00:00 19.4 2 Nordeste 4 Nordeste 0 -- -- 72
2017-09-06 03:00:00 20.5 0 Calma 12 Sur 0 -- -- 67
2017-09-06 02:00:00 22.1 12 Sur 26 Sur 0 -- -- 68
2017-09-06 01:00:00 22.9 23 Sur 33 Sudeste 0 -- -- 62
2017-09-06 00:00:00 23.6 18 Sur 24 Sur 0 -- -- 56
2017-09-05 23:00:00 23.6 5 Sur 13 Sur 0 -- -- 56
2017-09-05 22:00:00 24.3 7 Sur 12 Sudoeste 0 -- -- 53
2017-09-05 21:00:00 25.3 5 Sudoeste 19 Sudeste 0 -- -- 50
2017-09-05 20:00:00 26.3 14 Sur 28 Sudeste 0 -- -- 47
2017-09-05 19:00:00 27.9 18 Sur 31 Sur 0 -- -- 43
2017-09-05 18:00:00 29.7 21 Sudeste 33 Sur 0 -- -- 39
2017-09-05 17:00:00 30.4 24 Sudeste 32 Sur 0 -- -- 38
2017-09-05 16:00:00 31.1 23 Sudeste 31 Sur 0 -- -- 37
2017-09-05 15:00:00 31.2 21 Sudeste 31 Sur 0 -- -- 38
2017-09-05 14:00:00 30 23 Sur 31 Sur 0 -- -- 42
2017-09-05 13:00:00 28.6 22 Sur 30 Sur 0 -- -- 46
2017-09-05 12:00:00 27.1 21 Sur 26 Sur 0 -- -- 51
2017-09-05 11:00:00 26.1 3 Nordeste 8 Sur 0 -- -- 54
2017-09-05 10:00:00 22.1 3 Nordeste 8 Norte 0 -- -- 66
2017-09-05 09:00:00 15.2 4 Norte 8 Norte 0 -- -- 97
2017-09-05 08:00:00 14.5 7 Norte 9 Norte 0 -- -- 97
2017-09-05 07:00:00 15.3 4 Norte 10 Norte 0 -- -- 95
2017-09-05 06:00:00 15.4 6 Norte 7 Norte 0 -- -- 95
2017-09-05 05:00:00 15.8 5 Norte 11 Nordeste 0 -- -- 94
2017-09-05 04:00:00 16.7 4 Norte 6 Norte 0 -- -- 91
2017-09-05 03:00:00 18.1 0 Calma 6 Este 0 -- -- 86
2017-09-05 02:00:00 18.7 3 Este 15 Sur 0 -- -- 83
2017-09-05 01:00:00 19.9 9 Sur 18 Sur 0 -- -- 83
2017-09-05 00:00:00 20.1 14 Sur 24 Sur 0 -- -- 81
2017-09-04 23:00:00 20.7 18 Sur 32 Sur 0 -- -- 77
2017-09-04 22:00:00 21.5 21 Sur 32 Sur 0 -- -- 71
2017-09-04 21:00:00 22.1 9 Sur 20 Sur 0 -- -- 64
2017-09-04 20:00:00 22.9 14 Sudeste 27 Sur 0 -- -- 60
2017-09-04 19:00:00 23.5 24 Sur 34 Sur 0 -- -- 58
2017-09-04 18:00:00 24.2 14 Sur 34 Sur 0 -- -- 53
2017-09-04 17:00:00 25.4 20 Sur 39 Sur 0 -- -- 51
2017-09-04 16:00:00 23.4 27 Sur 53 Sur 0 -- -- 56
2017-09-04 15:00:00 26.1 12 Sur 29 Sur 0 -- -- 42
2017-09-04 14:00:00 27.4 18 Sur 28 Sur 0 -- -- 41
2017-09-04 13:00:00 27.8 21 Sur 28 Sur 0 -- -- 42
2017-09-04 12:00:00 26.8 4 Nordeste 11 Nordeste 0 -- -- 38
2017-09-04 11:00:00 24.7 8 Norte 12 Nordeste 0 -- -- 43
2017-09-04 10:00:00 18.5 8 Norte 13 Sur 0 -- -- 61
2017-09-04 09:00:00 17.6 6 Sur 9 Sudoeste 0 -- -- 64
2017-09-04 08:00:00 16.1 3 Noroeste 7 Norte 0 -- -- 65
2017-09-04 07:00:00 15.5 5 Nordeste 8 Nordeste 0 -- -- 68
2017-09-04 06:00:00 15.2 6 Norte 8 Nordeste 0 -- -- 72
2017-09-04 05:00:00 16.2 4 Noroeste 8 Noroeste 0 -- -- 63
2017-09-04 04:00:00 17.5 2 Sudoeste 6 Nordeste 0 -- -- 57
2017-09-04 03:00:00 16.5 5 Norte 9 Norte 0 -- -- 65
2017-09-04 02:00:00 17.5 3 Sur 10 Norte 0 -- -- 59
2017-09-04 01:00:00 17.1 5 Nordeste 19 Sur 0 -- -- 60
2017-09-04 00:00:00 17.6 0 Calma 8 Nordeste 0 -- -- 52
2017-09-03 23:00:00 18.4 3 Nordeste 10 Sur 0 -- -- 51
2017-09-03 22:00:00 19.6 5 Sur 18 Sur 0 -- -- 47
2017-09-03 21:00:00 20.9 10 Sur 30 Sur 0 -- -- 44
2017-09-03 20:00:00 22.5 21 Sur 36 Sur 0 -- -- 39
2017-09-03 19:00:00 23.3 26 Sur 43 Sur 0 -- -- 39
2017-09-03 18:00:00 25.1 29 Sur 41 Sur 0 -- -- 36
2017-09-03 17:00:00 25.6 28 Sur 40 Sur 0 -- -- 34
2017-09-03 16:00:00 26.4 30 Sudeste 39 Sudeste 0 -- -- 33
2017-09-03 15:00:00 26.2 27 Sur 37 Sur 0 -- -- 36
2017-09-03 14:00:00 22.8 18 Sur 30 Sur 0 -- -- 41
2017-09-03 13:00:00 21.4 6 Norte 14 Nordeste 0 -- -- 42
2017-09-03 12:00:00 17.2 10 Norte 21 Norte 0 -- -- 49
2017-09-03 11:00:00 16.1 3 Nordeste 12 Norte 0 -- -- 48
2017-09-03 10:00:00 14.3 8 Norte 11 Norte 0 -- -- 53
2017-09-03 09:00:00 11.6 3 Nordeste 6 Nordeste 0 -- -- 65
2017-09-03 08:00:00 9.5 4 Noroeste 8 Nordeste 0 -- -- 76
2017-09-03 07:00:00 9.8 5 Norte 14 Nordeste 0 -- -- 67
2017-09-03 06:00:00 9.5 5 Norte 6 Norte 0 -- -- 79
2017-09-03 05:00:00 10.1 6 Norte 7 Norte 0 -- -- 74
2017-09-03 04:00:00 10.7 3 Noroeste 5 Norte 0 -- -- 64
2017-09-03 03:00:00 10.5 4 Norte 5 Norte 0 -- -- 72
2017-09-03 02:00:00 11.4 3 Nordeste 5 Nordeste 0 -- -- 76
2017-09-03 01:00:00 12.7 0 Calma 4 Nordeste 0 -- -- 67
2017-09-03 00:00:00 14 0 Calma 5 Sudeste 0 -- -- 59
2017-09-02 23:00:00 14.7 4 Nordeste 7 Nordeste 0 -- -- 56
2017-09-02 22:00:00 16.5 6 Norte 9 Nordeste 0 -- -- 51
2017-09-02 21:00:00 19.4 4 Sudoeste 20 Sudeste 0 -- -- 45
2017-09-02 20:00:00 21.8 13 Sudeste 22 Sudeste 0 -- -- 39
2017-09-02 19:00:00 23.7 13 Nordeste 28 Nordeste 0 -- -- 24
2017-09-02 18:00:00 25.5 11 Nordeste 26 Sur 0 -- -- 24
2017-09-02 17:00:00 25.7 21 Sur 32 Sur 0 -- -- 31
2017-09-02 16:00:00 25.9 20 Sur 31 Sur 0 -- -- 30
2017-09-02 15:00:00 25.7 18 Sur 29 Sur 0 -- -- 29
2017-09-02 14:00:00 24.6 21 Sudeste 38 Sur 0 -- -- 33
2017-09-02 13:00:00 22.5 26 Sur 39 Sur 0 -- -- 40
2017-09-02 12:00:00 21.3 27 Sur 33 Sur 0 -- -- 43
2017-09-02 11:00:00 18.6 22 Sur 30 Sur 0 -- -- 49
2017-09-02 10:00:00 20.5 3 Sudeste 10 Norte 0 -- -- 34
2017-09-02 09:00:00 11.2 6 Norte 13 Nordeste 0 -- -- 61
2017-09-02 08:00:00 11.2 5 Nordeste 12 Nordeste 0 -- -- 59
2017-09-02 07:00:00 13.1 5 Norte 32 Norte 0 -- -- 49
2017-09-02 06:00:00 13.9 18 Norte 35 Norte 0 -- -- 47
2017-09-02 05:00:00 14 15 Norte 39 Norte 0 -- -- 52
2017-09-02 04:00:00 14.5 12 Norte 35 Norte 0 -- -- 50
2017-09-02 03:00:00 13.8 12 Norte 31 Norte 0 -- -- 62
2017-09-02 02:00:00 14.2 3 Oeste 20 Sur 0 -- -- 68
2017-09-02 01:00:00 15.3 11 Sudoeste 23 Sudoeste 0 -- -- 62
2017-09-02 00:00:00 15.8 10 Sudoeste 15 Sur 0 -- -- 63
2017-09-01 23:00:00 17 3 Norte 7 Oeste 0 -- -- 56
2017-09-01 22:00:00 18.8 4 Oeste 25 Sudeste 0 -- -- 49
2017-09-01 21:00:00 19.7 15 Sudeste 36 Sur 0 -- -- 45
2017-09-01 20:00:00 21.3 27 Sudeste 44 Sur 0 -- -- 43
2017-09-01 19:00:00 22.9 22 Sur 43 Sudeste 0 -- -- 38
2017-09-01 18:00:00 24.4 19 Sur 36 Sur 0 -- -- 34
2017-09-01 17:00:00 24.5 26 Sur 45 Sur 0 -- -- 35
2017-09-01 16:00:00 24.7 28 Sur 43 Sur 0 -- -- 37
2017-09-01 15:00:00 23.7 32 Sur 44 Sudeste 0 -- -- 44
2017-09-01 14:00:00 23.1 31 Sur 45 Sur 0 -- -- 49
2017-09-01 13:00:00 21.3 32 Sur 46 Sur 0 -- -- 58
2017-09-01 12:00:00 19.7 32 Sur 45 Sur 0 -- -- 68
2017-09-01 11:00:00 17.7 29 Sur 40 Sur 0 -- -- 78
2017-09-01 10:00:00 15.1 27 Sur 35 Sur 0 -- -- 87
2017-09-01 09:00:00 13.8 27 Sur 34 Sur 0.2 -- -- 93
2017-09-01 08:00:00 14.6 4 Sur 6 Sudoeste 0 -- -- 97
2017-09-01 07:00:00 14.2 0 Calma 8 Norte 0 -- -- 99
2017-09-01 06:00:00 14.1 4 Nordeste 8 Nordeste 0 -- -- 99
2017-09-01 05:00:00 13.9 4 Nordeste 8 Nordeste 0 -- -- 99
2017-09-01 04:00:00 14.2 5 Norte 8 Norte 0 -- -- 99
2017-09-01 03:00:00 14.1 6 Norte 10 Norte 0 -- -- 99
2017-09-01 02:00:00 15.1 0 Calma 10 Nordeste 0 -- -- 98
2017-09-01 01:00:00 15.5 0 Calma 6 Nordeste 0 -- -- 98
2017-09-01 00:00:00 16 3 Norte 8 Norte 0 -- -- 98
2017-08-31 23:00:00 16.5 5 Nordeste 10 Nordeste 0 -- -- 96
2017-08-31 22:00:00 17.1 0 Calma 5 Sur 0 -- -- 93
2017-08-31 21:00:00 17.8 0 Calma 6 Este 0 -- -- 88
2017-08-31 20:00:00 18.5 3 Este 6 Nordeste 0 -- -- 83
2017-08-31 19:00:00 18.5 0 Calma 8 Sur 0 -- -- 90
2017-08-31 18:00:00 19.4 5 Nordeste 9 Nordeste 0 -- -- 93
2017-08-31 17:00:00 17.5 4 Norte 18 Sudeste 7.4 -- -- 98
2017-08-31 16:00:00 16.4 8 Nordeste 24 Nordeste 11.8 -- -- 98
2017-08-31 15:00:00 20.4 6 Sur 29 Sudoeste 0 -- -- 74
2017-08-31 14:00:00 19.3 26 Sur 44 Sur 0 -- -- 83
2017-08-31 13:00:00 18.1 35 Sur 44 Sur 0 -- -- 90
2017-08-31 12:00:00 17.7 32 Sur 38 Sur 0.6 -- -- 94
2017-08-31 11:00:00 18.1 17 Sur 26 Sur 0 -- -- 93
2017-08-31 10:00:00 17.2 3 Norte 18 Sur 1.4 -- -- 90
2017-08-31 09:00:00 18.3 9 Sur 21 Sur 0 -- -- 80
2017-08-31 08:00:00 16.6 4 Norte 8 Norte 0 -- -- 88
2017-08-31 07:00:00 16.7 6 Nordeste 9 Nordeste 0 -- -- 87
2017-08-31 06:00:00 17.1 3 Norte 8 Norte 0 -- -- 84
2017-08-31 05:00:00 17.1 5 Norte 6 Norte 0 -- -- 87
2017-08-31 04:00:00 17.1 5 Norte 10 Norte 0 -- -- 87
2017-08-31 03:00:00 17.3 4 Nordeste 8 Nordeste 0 -- -- 86
2017-08-31 02:00:00 17.6 5 Norte 12 Norte 0 -- -- 83
2017-08-31 01:00:00 18 4 Norte 13 Norte 0 -- -- 81
2017-08-31 00:00:00 18.7 10 Norte 14 Norte 0 -- -- 79
2017-08-30 23:00:00 19.3 5 Norte 20 Norte 0 -- -- 69
2017-08-30 22:00:00 22.1 10 Sudoeste 28 Sur 0 -- -- 62
2017-08-30 21:00:00 23.2 15 Sur 31 Sur 0 -- -- 55
2017-08-30 20:00:00 24.2 22 Sur 34 Sur 0 -- -- 48
2017-08-30 19:00:00 25.6 15 Sur 32 Sur 0 -- -- 44
2017-08-30 18:00:00 26.3 12 Sur 36 Sudoeste 0 -- -- 43
2017-08-30 17:00:00 28.3 15 Sur 45 Sudoeste 0 -- -- 40
2017-08-30 16:00:00 29.2 14 Sudoeste 39 Sur 0 -- -- 38
2017-08-30 15:00:00 29 21 Sur 45 Sur 0 -- -- 39
2017-08-30 14:00:00 28.4 19 Sur 39 Sudeste 0 -- -- 40
2017-08-30 13:00:00 27.5 10 Sur 25 Sur 0 -- -- 44
2017-08-30 12:00:00 23.9 5 Nordeste 12 Norte 0 -- -- 57
2017-08-30 11:00:00 19.4 3 Nordeste 8 Norte 0 -- -- 80
2017-08-30 10:00:00 17.4 6 Norte 13 Oeste 0 -- -- 91
2017-08-30 09:00:00 15.8 7 Nordeste 12 Nordeste 0.4 -- -- 94
2017-08-30 08:00:00 17.3 0 Calma 12 Norte 0.2 -- -- 80
2017-08-30 07:00:00 17.5 9 Sur 16 Sur 0 -- -- 80
2017-08-30 06:00:00 17.3 4 Nordeste 10 Sur 0 -- -- 79
2017-08-30 05:00:00 18.2 16 Sur 46 Sur 0.2 -- -- 74
2017-08-30 04:00:00 18.1 4 Norte 8 Nordeste 0 -- -- 70
2017-08-30 03:00:00 18.1 5 Norte 10 Nordeste 0 -- -- 68
2017-08-30 02:00:00 18.1 6 Nordeste 10 Nordeste 0 -- -- 63
2017-08-30 01:00:00 19.3 6 Nordeste 18 Sur 0 -- -- 64
2017-08-30 00:00:00 21.4 14 Sur 34 Sur 0 -- -- 59
2017-08-29 23:00:00 22.8 5 Sudeste 14 Sudoeste 0 -- -- 58
2017-08-29 22:00:00 23.5 7 Sur 31 Sudeste 0 -- -- 55
2017-08-29 21:00:00 23.8 17 Sur 26 Sudeste 0 -- -- 57
2017-08-29 20:00:00 24.6 10 Sur 33 Sudeste 0 -- -- 52
2017-08-29 19:00:00 26.4 12 Sur 33 Sur 0 -- -- 46
2017-08-29 18:00:00 27.1 17 Sudoeste 37 Sur 0 -- -- 43
2017-08-29 17:00:00 28.4 10 Sudoeste 21 Sur 0 -- -- 39
2017-08-29 16:00:00 27.9 13 Sur 38 Sur 0 -- -- 44
2017-08-29 15:00:00 26.6 27 Sur 34 Sur 0 -- -- 47
2017-08-29 14:00:00 27.6 21 Sur 31 Sur 0 -- -- 46
2017-08-29 13:00:00 29.9 25 Sur 36 Sur 0 -- -- 42
2017-08-29 12:00:00 28.1 26 Sur 35 Sur 0 -- -- 50
2017-08-29 11:00:00 24.8 12 Sur 15 Sur 0 -- -- 61
2017-08-29 10:00:00 25.1 3 Nordeste 10 Nordeste 0 -- -- 55
2017-08-29 09:00:00 18.8 6 Sur 16 Sur 0 -- -- 84
2017-08-29 08:00:00 17 7 Nordeste 9 Sur 0 -- -- 85
2017-08-29 07:00:00 18.6 11 Sur 28 Sur 0 -- -- 90
2017-08-29 06:00:00 19.8 15 Sur 28 Sur 0 -- -- 78
2017-08-29 05:00:00 20 2 Nordeste 10 Sur 0 -- -- 69
2017-08-29 04:00:00 20.7 8 Sur 23 Sur 0 -- -- 69
2017-08-29 03:00:00 22.5 2 Norte 9 Norte 0 -- -- 61
2017-08-29 02:00:00 23.5 3 Sudeste 12 Nordeste 0 -- -- 58
2017-08-29 01:00:00 23.3 4 Noroeste 9 Norte 0 -- -- 59
2017-08-29 00:00:00 23.8 7 Nordeste 13 Sur 0 -- -- 57
2017-08-28 23:00:00 25.6 11 Sur 22 Sur 0 -- -- 52
2017-08-28 22:00:00 26.3 15 Sur 23 Sudeste 0 -- -- 49
2017-08-28 21:00:00 27.5 12 Sur 36 Sudeste 0 -- -- 45
2017-08-28 20:00:00 29.5 19 Sur 39 Sur 0 -- -- 37
2017-08-28 19:00:00 31.2 24 Sudoeste 45 Sudoeste 0 -- -- 40
2017-08-28 18:00:00 34.3 21 Sudoeste 45 Sur 0 -- -- 24
2017-08-28 17:00:00 34.7 14 Sudoeste 41 Sudeste 0 -- -- 25
2017-08-28 16:00:00 36.3 19 Sur 37 Sur 0 -- -- 25
2017-08-28 15:00:00 36.4 17 Sur 23 Sur 0 -- -- 25
2017-08-28 14:00:00 34.5 13 Sur 17 Sur 0 -- -- 28
2017-08-28 13:00:00 31.7 6 Nordeste 13 Nordeste 0 -- -- 35
2017-08-28 12:00:00 28.1 7 Nordeste 14 Nordeste 0 -- -- 46
2017-08-28 11:00:00 25.9 7 Nordeste 14 Norte 0 -- -- 51
2017-08-28 10:00:00 23.7 9 Nordeste 18 Nordeste 0 -- -- 60
2017-08-28 09:00:00 17.9 3 Nordeste 14 Nordeste 0 -- -- 84
2017-08-28 08:00:00 15.7 4 Norte 13 Nordeste 0 -- -- 95
2017-08-28 07:00:00 15.7 5 Norte 10 Nordeste 0 -- -- 96
2017-08-28 06:00:00 16 6 Norte 9 Norte 0 -- -- 94
2017-08-28 05:00:00 16 7 Norte 9 Norte 0 -- -- 96
2017-08-28 04:00:00 16.7 5 Norte 11 Norte 0 -- -- 92
2017-08-28 03:00:00 17.2 3 Norte 7 Norte 0 -- -- 92
2017-08-28 02:00:00 17.8 4 Nordeste 6 Norte 0 -- -- 90
2017-08-28 01:00:00 18.4 5 Norte 10 Nordeste 0 -- -- 87
2017-08-28 00:00:00 18.7 6 Norte 13 Noroeste 0 -- -- 88
2017-08-27 23:00:00 19.5 8 Norte 18 Norte 0 -- -- 85
2017-08-27 22:00:00 20.6 10 Norte 14 Norte 0 -- -- 79
2017-08-27 21:00:00 21 10 Norte 15 Norte 0 -- -- 86
2017-08-27 20:00:00 22.3 7 Noroeste 27 Nordeste 0.4 -- -- 73
2017-08-27 19:00:00 29 16 Sur 46 Sur 0 -- -- 39
2017-08-27 18:00:00 33.3 15 Sudoeste 29 Sur 0 -- -- 27
2017-08-27 17:00:00 34.2 15 Sudoeste 36 Sudeste 0 -- -- 26
2017-08-27 16:00:00 35.5 16 Sur 30 Sur 0 -- -- 23
2017-08-27 15:00:00 36 18 Sur 28 Sur 0 -- -- 24
2017-08-27 14:00:00 34.7 18 Sur 31 Sur 0 -- -- 24
2017-08-27 13:00:00 32.1 18 Sur 23 Sur 0 -- -- 31
2017-08-27 12:00:00 30 3 Nordeste 10 Norte 0 -- -- 37
2017-08-27 11:00:00 29.6 5 Nordeste 13 Nordeste 0 -- -- 39
2017-08-27 10:00:00 25 4 Nordeste 12 Nordeste 0 -- -- 51
2017-08-27 09:00:00 21.2 6 Nordeste 15 Norte 0 -- -- 68
2017-08-27 08:00:00 19.6 8 Norte 13 Norte 0 -- -- 72
2017-08-27 07:00:00 21.1 4 Norte 11 Sur 0 -- -- 67
2017-08-27 06:00:00 22.1 7 Sur 23 Sur 0 -- -- 71
2017-08-27 05:00:00 23.1 14 Sur 30 Sur 0 -- -- 65
2017-08-27 04:00:00 23.2 4 Nordeste 9 Norte 0 -- -- 57
2017-08-27 03:00:00 23.4 5 Norte 12 Noroeste 0 -- -- 57
2017-08-27 02:00:00 23.4 8 Norte 15 Nordeste 0 -- -- 63
2017-08-27 01:00:00 25.1 4 Sur 38 Sur 0 -- -- 61
2017-08-27 00:00:00 25.5 6 Oeste 11 Norte 0 -- -- 58
2017-08-26 23:00:00 26.2 8 Sur 11 Este 0 -- -- 56
2017-08-26 22:00:00 26.8 14 Sur 41 Sudeste 0 -- -- 55
2017-08-26 21:00:00 29.1 15 Sur 30 Sudoeste 0 -- -- 46
2017-08-26 20:00:00 30.7 16 Sur 31 Sudoeste 0 -- -- 38
2017-08-26 19:00:00 32.8 18 Sur 29 Sur 0 -- -- 33
2017-08-26 18:00:00 33.9 17 Sur 31 Sur 0 -- -- 28
2017-08-26 17:00:00 35.3 14 Sur 32 Sur 0 -- -- 26
2017-08-26 16:00:00 35.3 22 Sur 36 Sur 0 -- -- 24
2017-08-26 15:00:00 33.2 20 Sur 36 Sur 0 -- -- 23
2017-08-26 14:00:00 34.7 23 Sur 36 Sur 0 -- -- 21
2017-08-26 13:00:00 34.1 18 Sur 26 Sudeste 0 -- -- 21
2017-08-26 12:00:00 30 4 Norte 12 Nordeste 0 -- -- 31
2017-08-26 11:00:00 26.9 4 Nordeste 10 Nordeste 0 -- -- 37
2017-08-26 10:00:00 25.4 5 Nordeste 10 Norte 0 -- -- 41
2017-08-26 09:00:00 19.6 4 Este 7 Este 0 -- -- 54
2017-08-26 08:00:00 17.3 0 Calma 8 Norte 0 -- -- 62
2017-08-26 07:00:00 17 5 Norte 9 Nordeste 0 -- -- 66
2017-08-26 06:00:00 18.5 6 Nordeste 9 Nordeste 0 -- -- 62
2017-08-26 05:00:00 19.6 4 Nordeste 13 Nordeste 0 -- -- 55
2017-08-26 04:00:00 19.7 7 Nordeste 15 Nordeste 0 -- -- 57
2017-08-26 03:00:00 20.1 7 Norte 11 Norte 0 -- -- 55
2017-08-26 02:00:00 20.7 7 Nordeste 10 Nordeste 0 -- -- 52
2017-08-26 01:00:00 22.3 7 Nordeste 33 Sur 0 -- -- 48
2017-08-26 00:00:00 23.5 18 Sur 28 Sur 0 -- -- 46
2017-08-25 23:00:00 24.2 8 Sur 17 Sur 0 -- -- 41
2017-08-25 22:00:00 26.4 5 Sudeste 31 Sudoeste 0 -- -- 35
2017-08-25 21:00:00 27.8 22 Sur 39 Sudeste 0 -- -- 35
2017-08-25 20:00:00 29.7 18 Sur 37 Sudoeste 0 -- -- 29
2017-08-25 19:00:00 30.8 11 Sur 41 Sudoeste 0 -- -- 29
2017-08-25 18:00:00 31.4 18 Sudoeste 37 Sudoeste 0 -- -- 30
2017-08-25 17:00:00 32.6 13 Sudoeste 35 Sudoeste 0 -- -- 27
2017-08-25 16:00:00 33.5 21 Sudoeste 39 Sudoeste 0 -- -- 23
2017-08-25 15:00:00 34 12 Sudoeste 36 Sudoeste 0 -- -- 24
2017-08-25 14:00:00 32.3 24 Sudoeste 39 Sur 0 -- -- 22
2017-08-25 13:00:00 31.4 6 Noroeste 14 Nordeste 0 -- -- 25
2017-08-25 12:00:00 27.1 4 Norte 8 Norte 0 -- -- 34
2017-08-25 11:00:00 23.2 4 Norte 11 Nordeste 0 -- -- 42
2017-08-25 10:00:00 21.5 4 Norte 8 Nordeste 0 -- -- 47
2017-08-25 09:00:00 17.9 3 Norte 10 Norte 0 -- -- 55
2017-08-25 08:00:00 15.6 6 Norte 7 Nordeste 0 -- -- 65
2017-08-25 07:00:00 15.7 5 Norte 8 Norte 0 -- -- 56
2017-08-25 06:00:00 15.9 4 Norte 8 Norte 0 -- -- 64
2017-08-25 05:00:00 16 5 Norte 9 Norte 0 -- -- 61
2017-08-25 04:00:00 16.7 6 Norte 8 Nordeste 0 -- -- 61
2017-08-25 03:00:00 18.4 6 Nordeste 9 Norte 0 -- -- 54
2017-08-25 02:00:00 19.3 7 Norte 9 Norte 0 -- -- 55
2017-08-25 01:00:00 21.6 2 Norte 8 Este 0 -- -- 43
2017-08-25 00:00:00 23.6 2 Sudoeste 24 Sur 0 -- -- 36
2017-08-24 23:00:00 25.7 21 Sur 38 Sur 0 -- -- 31
2017-08-24 22:00:00 26.3 23 Sur 35 Sur 0 -- -- 34
2017-08-24 21:00:00 27.6 19 Sur 29 Sur 0 -- -- 30
2017-08-24 20:00:00 29.4 19 Sudoeste 29 Sur 0 -- -- 27
2017-08-24 19:00:00 31.5 15 Sur 31 Sur 0 -- -- 24
2017-08-24 18:00:00 33.2 19 Sur 37 Sur 0 -- -- 24
2017-08-24 17:00:00 33.9 19 Sur 31 Sur 0 -- -- 25
2017-08-24 16:00:00 34.1 21 Sur 33 Sur 0 -- -- 22
2017-08-24 15:00:00 33.5 21 Sur 38 Sur 0 -- -- 24
2017-08-24 14:00:00 33.4 23 Sur 37 Sur 0 -- -- 27
2017-08-24 13:00:00 32.2 24 Sur 36 Sur 0 -- -- 33
2017-08-24 12:00:00 29.4 6 Nordeste 13 Nordeste 0 -- -- 41
2017-08-24 11:00:00 27.7 5 Nordeste 13 Nordeste 0 -- -- 48
2017-08-24 10:00:00 24.9 5 Nordeste 13 Norte 0 -- -- 58
2017-08-24 09:00:00 19.7 7 Norte 12 Nordeste 0 -- -- 83
2017-08-24 08:00:00 17.8 6 Norte 11 Norte 0.2 -- -- 88
2017-08-24 07:00:00 17.9 5 Noroeste 14 Norte 0 -- -- 87
2017-08-24 06:00:00 19.1 4 Norte 27 Noroeste 0 -- -- 82
2017-08-24 05:00:00 18.1 12 Norte 28 Oeste 0.8 -- -- 91
2017-08-24 04:00:00 23.9 16 Sudoeste 26 Sudoeste 0 -- -- 54
2017-08-24 03:00:00 21.6 5 Nordeste 13 Norte 0 -- -- 55
2017-08-24 02:00:00 22.1 3 Norte 9 Norte 0 -- -- 52
2017-08-24 01:00:00 22.3 8 Norte 20 Sur 0 -- -- 51
2017-08-24 00:00:00 23.9 12 Sur 21 Sur 0 -- -- 45
2017-08-23 23:00:00 24.6 4 Sur 12 Sur 0 -- -- 45
2017-08-23 22:00:00 25.1 10 Sur 15 Sur 0 -- -- 46
2017-08-23 21:00:00 27 9 Sur 24 Sudeste 0 -- -- 42
2017-08-23 20:00:00 28.4 15 Sur 32 Sudoeste 0 -- -- 38
2017-08-23 19:00:00 30.1 15 Sudoeste 37 Sudoeste 0 -- -- 34
2017-08-23 18:00:00 32.6 22 Sudoeste 39 Sur 0 -- -- 29
2017-08-23 17:00:00 34.2 21 Sudoeste 36 Sur 0 -- -- 24
2017-08-23 16:00:00 34.2 19 Sur 40 Sur 0 -- -- 23
2017-08-23 15:00:00 34.6 17 Sur 43 Sur 0 -- -- 18
2017-08-23 14:00:00 33.4 15 Sudoeste 43 Sur 0 -- -- 20
2017-08-23 13:00:00 31.1 15 Sudoeste 28 Sudoeste 0 -- -- 33
2017-08-23 12:00:00 29.6 6 Sur 16 Sur 0 -- -- 37
2017-08-23 11:00:00 24.1 5 Nordeste 9 Nordeste 0 -- -- 59
2017-08-23 10:00:00 21.2 6 Norte 13 Nordeste 0 -- -- 69
2017-08-23 09:00:00 21.4 4 Norte 6 Norte 0 -- -- 68
2017-08-23 08:00:00 18.2 5 Norte 11 Norte 0 -- -- 76
2017-08-23 07:00:00 18.1 6 Norte 10 Norte 0 -- -- 78
2017-08-23 06:00:00 19.3 3 Nordeste 15 Sudoeste 0 -- -- 76
2017-08-23 05:00:00 20 4 Sur 13 Nordeste 0 -- -- 73
2017-08-23 04:00:00 20.6 6 Norte 12 Nordeste 0 -- -- 72
2017-08-23 03:00:00 21.3 5 Nordeste 7 Nordeste 0 -- -- 69
2017-08-23 02:00:00 22.5 5 Nordeste 32 Sur 0 -- -- 67
2017-08-23 01:00:00 23.4 27 Sur 35 Sur 0 -- -- 65
2017-08-23 00:00:00 24.2 19 Sur 26 Sur 0 -- -- 61
2017-08-22 23:00:00 25.6 17 Sur 35 Sur 0 -- -- 56
2017-08-22 22:00:00 26.9 22 Sur 37 Sur 0 -- -- 52
2017-08-22 21:00:00 28.8 18 Sur 28 Sur 0 -- -- 45
2017-08-22 20:00:00 30.8 15 Sur 26 Sudeste 0 -- -- 29
2017-08-22 19:00:00 33.2 19 Sur 35 Sur 0 -- -- 25
2017-08-22 18:00:00 34.7 24 Sur 40 Sur 0 -- -- 22
2017-08-22 17:00:00 35.5 27 Sudeste 38 Sudeste 0 -- -- 22
2017-08-22 16:00:00 35.8 27 Sur 39 Sur 0 -- -- 22
2017-08-22 15:00:00 35.5 26 Sur 41 Sur 0 -- -- 22
2017-08-22 14:00:00 34.8 28 Sur 39 Sur 0 -- -- 26
2017-08-22 13:00:00 33.7 23 Sudeste 34 Sur 0 -- -- 31
2017-08-22 12:00:00 30.9 8 Sur 14 Sur 0 -- -- 36
2017-08-22 11:00:00 27.4 5 Norte 12 Nordeste 0 -- -- 42
2017-08-22 10:00:00 24.1 8 Nordeste 11 Nordeste 0 -- -- 48
2017-08-22 09:00:00 19.4 4 Norte 8 Norte 0 -- -- 64
2017-08-22 08:00:00 15.9 6 Noroeste 9 Norte 0 -- -- 77
2017-08-22 07:00:00 15.4 5 Norte 9 Norte 0 -- -- 89
2017-08-22 06:00:00 15.5 6 Norte 8 Norte 0 -- -- 89
2017-08-22 05:00:00 16.5 6 Norte 7 Norte 0 -- -- 85
2017-08-22 04:00:00 17.7 6 Norte 9 Norte 0 -- -- 76
2017-08-22 03:00:00 18.8 3 Nordeste 5 Norte 0 -- -- 76
2017-08-22 02:00:00 20.2 2 Nordeste 11 Sur 0 -- -- 70
2017-08-22 01:00:00 21.7 0 Calma 7 Nordeste 0 -- -- 63
2017-08-22 00:00:00 23 2 Este 30 Sur 0 -- -- 61